Time;durP1;ratioP1;P1;durP2;ratioP2;P2;SDS_P1;SDS_P2;PMS_P1;PMS_P2;Temp;Humidity;BMP_temperature;BMP_pressure;BME280_temperature;BME280_humidity;BME280_pressure;Samples;Min_cycle;Max_cycle;Signal;HPM_P1;HPM_P2
2023/06/07 00:01:08;;;;;;;193.88;67.00;;;;;;;20.25;56.39;101911.66;5004303;28;20105;-71
2023/06/07 00:03:34;;;;;;;214.30;76.47;;;;;;;20.25;56.27;101913.47;4988924;28;20491;-70
2023/06/07 00:06:00;;;;;;;190.88;67.18;;;;;;;20.23;56.52;101902.03;5003580;28;20076;-70
2023/06/07 00:08:27;;;;;;;193.07;67.60;;;;;;;20.22;56.58;101909.13;5001255;28;20052;-69
2023/06/07 00:10:52;;;;;;;189.18;66.50;;;;;;;20.22;56.53;101900.28;5002327;28;20503;-71
2023/06/07 00:13:18;;;;;;;187.60;66.60;;;;;;;20.21;56.72;101898.56;5026443;22;20068;-74
2023/06/07 00:15:43;;;;;;;184.05;66.20;;;;;;;20.20;56.87;101908.31;5026405;28;20036;-76
2023/06/07 00:18:10;;;;;;;182.88;66.22;;;;;;;20.19;56.69;101911.03;5029227;28;20036;-76
2023/06/07 00:20:35;;;;;;;181.82;65.43;;;;;;;20.19;57.28;101908.38;5028515;28;20025;-75
2023/06/07 00:23:01;;;;;;;191.27;65.80;;;;;;;20.17;57.00;101902.28;5019583;28;20434;-75
2023/06/07 00:25:27;;;;;;;187.07;66.70;;;;;;;20.17;57.32;101897.81;4990313;28;20030;-75
2023/06/07 00:27:53;;;;;;;186.25;65.57;;;;;;;20.16;57.33;101909.34;5008376;28;20022;-75
2023/06/07 00:30:18;;;;;;;186.98;66.53;;;;;;;20.14;57.12;101903.25;5011995;28;20025;-74
2023/06/07 00:32:44;;;;;;;199.02;68.03;;;;;;;20.16;57.68;101900.53;5019425;28;20022;-75
2023/06/07 00:35:11;;;;;;;177.77;64.72;;;;;;;20.15;57.51;101904.09;5013229;28;20112;-76
2023/06/07 00:37:37;;;;;;;182.25;66.07;;;;;;;20.14;57.73;101897.06;4996768;28;20034;-76
2023/06/07 00:40:03;;;;;;;189.27;67.45;;;;;;;20.14;58.01;101902.34;5029454;28;20828;-76
2023/06/07 00:42:29;;;;;;;181.55;65.70;;;;;;;20.14;57.70;101899.72;5026450;28;20098;-76
2023/06/07 00:45:01;;;;;;;180.00;65.07;;;;;;;20.12;58.03;101899.78;5006408;28;20037;-76
2023/06/07 00:47:29;;;;;;;185.88;65.30;;;;;;;20.12;57.59;101901.56;5027372;28;20049;-75
2023/06/07 00:49:55;;;;;;;178.57;65.28;;;;;;;20.10;57.62;101897.19;5008750;28;20440;-76
2023/06/07 00:52:21;;;;;;;185.02;66.45;;;;;;;20.10;57.82;101896.31;5027515;28;20105;-76
2023/06/07 00:54:50;;;;;;;183.15;64.78;;;;;;;20.09;57.73;101895.44;5011875;28;20022;-76
2023/06/07 00:57:16;;;;;;;183.48;65.70;;;;;;;20.09;58.14;101895.44;4989182;28;20022;-77
2023/06/07 00:59:45;;;;;;;183.10;65.28;;;;;;;20.07;58.05;101889.34;4995964;28;20380;-75
2023/06/07 01:02:14;;;;;;;192.55;67.03;;;;;;;20.07;58.47;101892.00;4997283;28;20048;-75
2023/06/07 01:04:40;;;;;;;184.80;65.65;;;;;;;20.06;58.66;101892.91;4995052;28;20029;-75
2023/06/07 01:07:07;;;;;;;182.98;65.50;;;;;;;20.07;58.67;101904.41;5015705;28;20029;-75
2023/06/07 01:09:33;;;;;;;180.02;65.40;;;;;;;20.05;58.39;101892.97;4996919;28;20097;-75
2023/06/07 01:11:59;;;;;;;185.80;67.05;;;;;;;20.05;58.62;101899.13;5012933;28;20176;-76
2023/06/07 01:14:35;;;;;;;188.68;65.90;;;;;;;20.05;58.99;101899.13;5010798;28;20057;-75
2023/06/07 01:17:04;;;;;;;183.93;63.95;;;;;;;20.04;59.12;101896.53;4995036;28;20638;-75
2023/06/07 01:19:30;;;;;;;177.38;62.85;;;;;;;20.04;59.07;101902.72;5011275;28;20080;-74
2023/06/07 01:22:06;;;;;;;179.23;64.93;;;;;;;20.02;59.18;101896.59;5009346;28;20036;-74
2023/06/07 01:24:39;;;;;;;183.93;65.57;;;;;;;20.01;59.28;101894.84;5012166;28;20026;-74
2023/06/07 01:27:07;;;;;;;180.25;63.45;;;;;;;20.01;59.41;101892.22;5011493;28;20028;-74
2023/06/07 01:29:32;;;;;;;181.27;65.15;;;;;;;20.00;59.70;101890.50;5012782;28;20017;-74
2023/06/07 01:32:01;;;;;;;188.82;66.47;;;;;;;20.00;59.89;101887.84;4993261;28;20120;-75
2023/06/07 01:34:27;;;;;;;183.77;64.32;;;;;;;19.98;60.21;101881.72;5012356;28;20182;-75
2023/06/07 01:36:55;;;;;;;187.43;66.15;;;;;;;19.99;60.09;101888.75;5011085;28;20483;-75
2023/06/07 01:39:21;;;;;;;182.20;64.97;;;;;;;19.99;60.27;101891.41;5012109;28;20037;-75
2023/06/07 01:41:49;;;;;;;185.00;65.50;;;;;;;19.99;60.32;101885.22;5010597;28;20108;-75
2023/06/07 01:44:15;;;;;;;212.50;68.68;;;;;;;19.99;60.21;101887.88;5010909;28;20034;-76
2023/06/07 01:46:41;;;;;;;181.98;64.88;;;;;;;19.98;60.37;101888.81;4995809;28;20028;-74
2023/06/07 01:49:06;;;;;;;181.55;63.60;;;;;;;19.97;60.52;101884.44;5010665;28;20026;-74
2023/06/07 01:51:32;;;;;;;179.32;63.60;;;;;;;19.96;60.17;101886.22;5004576;28;20038;-74
2023/06/07 01:53:58;;;;;;;182.05;64.88;;;;;;;19.96;60.30;101886.22;5009912;28;20025;-74
2023/06/07 01:56:32;;;;;;;180.32;64.60;;;;;;;19.96;60.27;101882.69;5002935;28;20034;-74
2023/06/07 01:59:16;;;;;;;180.07;64.32;;;;;;;19.94;60.48;101874.81;5009357;28;20491;-75
2023/06/07 02:01:46;;;;;;;183.30;64.90;;;;;;;19.95;60.56;101881.84;5007048;28;20037;-73
2023/06/07 02:04:16;;;;;;;196.80;65.55;;;;;;;19.95;60.54;101876.53;5011918;28;20026;-74
2023/06/07 02:06:44;;;;;;;181.07;64.65;;;;;;;19.94;60.20;101880.09;5008389;28;20071;-75
2023/06/07 02:09:11;;;;;;;184.65;65.50;;;;;;;19.93;60.76;101873.94;4993461;28;20112;-75
2023/06/07 02:11:40;;;;;;;186.43;65.22;;;;;;;19.93;60.89;101881.03;5010903;28;20387;-74
2023/06/07 02:14:06;;;;;;;188.38;65.47;;;;;;;19.91;60.75;101875.78;5010365;28;20022;-75
2023/06/07 02:16:36;;;;;;;174.07;64.32;;;;;;;19.91;60.82;101878.44;4993910;28;20034;-74
2023/06/07 02:19:09;;;;;;;181.00;63.90;;;;;;;19.91;60.83;101874.94;4992982;28;20511;-75
2023/06/07 02:21:36;;;;;;;177.48;64.28;;;;;;;19.91;60.93;101877.56;5016702;28;20116;-75
2023/06/07 02:24:05;;;;;;;189.88;66.28;;;;;;;19.91;60.75;101877.56;5009346;28;20063;-75
2023/06/07 02:26:32;;;;;;;183.32;66.32;;;;;;;19.91;61.26;101872.28;5010241;28;20041;-76
2023/06/07 02:28:58;;;;;;;181.27;64.32;;;;;;;19.90;61.37;101873.19;5012474;28;20077;-76
2023/06/07 02:31:23;;;;;;;180.00;64.93;;;;;;;19.89;62.34;101872.34;5011104;28;20403;-76
2023/06/07 02:33:48;;;;;;;185.75;64.72;;;;;;;19.89;62.69;101877.63;5009527;28;20101;-74
2023/06/07 02:36:14;;;;;;;181.90;65.82;;;;;;;19.89;61.95;101875.00;5011252;28;20022;-75
2023/06/07 02:38:39;;;;;;;182.85;63.92;;;;;;;19.89;61.86;101876.75;5012075;28;20168;-75
2023/06/07 02:41:05;;;;;;;186.13;64.20;;;;;;;19.88;61.54;101875.91;4993299;28;20022;-75
2023/06/07 02:43:30;;;;;;;178.18;62.03;;;;;;;19.89;61.95;101871.44;5009028;28;20360;-75
2023/06/07 02:45:56;;;;;;;183.63;65.05;;;;;;;19.87;61.93;101874.16;5021550;28;20518;-75
2023/06/07 02:48:21;;;;;;;182.38;63.65;;;;;;;19.87;62.03;101873.31;5009578;28;20021;-76
2023/06/07 02:50:47;;;;;;;193.23;65.30;;;;;;;19.86;61.55;101867.13;4991818;28;20054;-75
2023/06/07 02:53:12;;;;;;;184.85;64.35;;;;;;;19.87;61.75;101875.97;5004014;28;20022;-75
2023/06/07 02:55:38;;;;;;;178.93;63.97;;;;;;;19.87;61.74;101870.66;5011140;28;20026;-75
2023/06/07 02:58:03;;;;;;;183.40;65.60;;;;;;;19.86;61.60;101871.56;5011866;28;20033;-75
2023/06/07 03:00:30;;;;;;;178.75;64.00;;;;;;;19.86;61.80;101874.22;5010028;28;20395;-75
2023/06/07 03:02:55;;;;;;;181.15;62.65;;;;;;;19.86;62.20;101874.22;5000305;28;20487;-75
2023/06/07 03:05:21;;;;;;;183.43;64.30;;;;;;;19.85;61.81;101873.38;5010016;28;20045;-75
2023/06/07 03:07:46;;;;;;;185.93;65.32;;;;;;;19.86;62.01;101868.91;4996828;28;20030;-75
2023/06/07 03:10:12;;;;;;;179.05;63.25;;;;;;;19.87;61.97;101870.66;5009825;28;20021;-75
2023/06/07 03:12:38;;;;;;;180.60;64.00;;;;;;;19.87;61.85;101875.97;5004853;28;20037;-74
2023/06/07 03:15:03;;;;;;;178.93;63.55;;;;;;;19.84;62.41;101866.31;4994176;28;20017;-75
2023/06/07 03:17:30;;;;;;;182.15;64.18;;;;;;;19.87;62.19;101868.84;5010353;28;20109;-74
2023/06/07 03:19:56;;;;;;;180.30;63.17;;;;;;;19.88;61.51;101864.44;5010899;28;20099;-75
2023/06/07 03:22:22;;;;;;;181.60;63.33;;;;;;;19.88;61.65;101869.75;5008863;28;20040;-74
2023/06/07 03:24:48;;;;;;;179.77;63.78;;;;;;;19.88;61.77;101869.75;4990603;28;20095;-75
2023/06/07 03:27:15;;;;;;;186.73;65.68;;;;;;;19.89;61.94;101876.75;5004458;28;20113;-74
2023/06/07 03:29:40;;;;;;;175.75;63.53;;;;;;;19.90;61.29;101873.19;5011957;28;20010;-74
2023/06/07 03:32:07;;;;;;;177.05;63.15;;;;;;;19.90;61.87;101879.34;5007991;28;20537;-73
2023/06/07 03:34:32;;;;;;;179.25;64.45;;;;;;;19.91;61.12;101881.09;5007558;28;20108;-74
2023/06/07 03:36:58;;;;;;;182.05;64.95;;;;;;;19.92;61.28;101877.50;4980086;28;20125;-75
2023/06/07 03:39:23;;;;;;;180.60;63.97;;;;;;;19.92;61.28;101881.97;5008185;28;20033;-74
2023/06/07 03:41:48;;;;;;;191.88;66.05;;;;;;;19.95;61.13;101880.97;5007775;28;20084;-74
2023/06/07 03:44:14;;;;;;;190.48;65.07;;;;;;;19.95;61.09;101880.97;5007463;28;20080;-74
2023/06/07 03:46:40;;;;;;;177.95;64.03;;;;;;;19.96;61.12;101882.69;4993194;28;20077;-75
2023/06/07 03:49:05;;;;;;;179.90;63.97;;;;;;;19.96;61.23;101878.28;5006324;28;20559;-75
2023/06/07 03:51:32;;;;;;;179.43;64.25;;;;;;;19.98;60.94;101880.88;5005325;28;20026;-74
2023/06/07 03:53:58;;;;;;;183.20;64.72;;;;;;;20.00;61.23;101884.31;5026393;28;20034;-73
2023/06/07 03:56:23;;;;;;;190.00;65.93;;;;;;;19.99;60.51;101871.97;5003501;28;20037;-76
2023/06/07 03:58:49;;;;;;;181.48;65.13;;;;;;;20.00;60.96;101879.91;5009204;28;20037;-75
2023/06/07 04:01:16;;;;;;;182.20;63.72;;;;;;;20.03;61.06;101885.06;5004924;28;20026;-75
2023/06/07 04:03:42;;;;;;;179.95;62.35;;;;;;;20.05;60.49;101872.59;5010017;28;20101;-74
2023/06/07 04:06:08;;;;;;;182.73;64.82;;;;;;;20.05;60.62;101877.91;4993532;28;20456;-75
2023/06/07 04:08:36;;;;;;;184.98;63.88;;;;;;;20.06;60.45;101878.78;4993049;28;20076;-75
2023/06/07 04:11:01;;;;;;;181.75;65.13;;;;;;;20.08;61.00;101866.31;5009620;28;20026;-75
2023/06/07 04:13:27;;;;;;;179.18;63.22;;;;;;;20.09;60.61;101868.91;5011086;28;20083;-75
2023/06/07 04:15:52;;;;;;;195.90;66.78;;;;;;;20.12;61.25;101864.44;5011793;28;20033;-75
2023/06/07 04:18:17;;;;;;;179.10;64.45;;;;;;;20.15;61.16;101872.25;5012005;28;20034;-75
2023/06/07 04:20:43;;;;;;;180.32;64.47;;;;;;;20.16;60.97;101874.84;5010784;28;20399;-74
2023/06/07 04:23:08;;;;;;;179.77;63.72;;;;;;;20.19;60.95;101865.94;5006171;28;20030;-75
2023/06/07 04:25:33;;;;;;;198.90;66.70;;;;;;;20.20;61.55;101863.22;5013514;28;20030;-75
2023/06/07 04:28:03;;;;;;;200.57;66.80;;;;;;;20.25;61.10;101871.00;5009315;28;20168;-74
2023/06/07 04:30:34;;;;;;;200.88;67.65;;;;;;;20.28;60.33;101868.22;4989923;28;20022;-76
2023/06/07 04:33:03;;;;;;;184.52;64.57;;;;;;;20.33;61.08;101868.94;5006725;28;20037;-76
2023/06/07 04:35:31;;;;;;;205.55;68.25;;;;;;;20.40;60.98;101872.22;4989410;28;20399;-73
2023/06/07 04:37:57;;;;;;;180.27;64.15;;;;;;;20.44;60.70;101864.06;5006417;28;20026;-75
2023/06/07 04:40:23;;;;;;;186.60;64.70;;;;;;;20.51;60.74;101879.75;5013908;28;20018;-75
2023/06/07 04:42:55;;;;;;;183.18;63.80;;;;;;;20.56;60.55;101877.75;4996482;28;20510;-74
2023/06/07 04:45:28;;;;;;;181.75;63.58;;;;;;;20.63;59.88;101876.59;5000897;28;20415;-75
2023/06/07 04:47:53;;;;;;;180.50;64.50;;;;;;;20.70;59.61;101870.16;5012145;28;20025;-75
2023/06/07 04:50:20;;;;;;;182.68;65.10;;;;;;;20.73;59.78;101875.31;4991919;28;20694;-74
2023/06/07 04:52:49;;;;;;;186.95;65.57;;;;;;;20.73;58.91;101872.69;4987782;28;20091;-75
2023/06/07 04:55:15;;;;;;;185.55;65.22;;;;;;;20.75;59.21;101875.25;5029068;28;20034;-75
2023/06/07 04:57:42;;;;;;;178.23;63.72;;;;;;;20.79;58.97;101876.88;5013619;28;20034;-75
2023/06/07 05:00:11;;;;;;;178.93;63.88;;;;;;;20.83;58.85;101877.63;5014672;28;20025;-75
2023/06/07 05:02:41;;;;;;;184.35;64.25;;;;;;;20.86;58.66;101885.44;5013971;28;20422;-75
2023/06/07 05:05:08;;;;;;;182.35;64.00;;;;;;;20.94;57.35;101872.72;5012835;28;20022;-75
2023/06/07 05:07:33;;;;;;;177.95;64.05;;;;;;;21.06;57.11;101882.84;5013893;28;20097;-75
2023/06/07 05:09:59;;;;;;;184.15;64.50;;;;;;;21.14;55.83;101884.31;5012676;28;20459;-75
2023/06/07 05:12:24;;;;;;;177.43;64.70;;;;;;;21.16;56.16;101887.78;5013223;28;20041;-75
2023/06/07 05:14:50;;;;;;;183.77;65.05;;;;;;;21.13;55.47;101882.59;5028793;28;20044;-75
2023/06/07 05:17:19;;;;;;;180.35;64.10;;;;;;;21.10;56.21;101883.59;5010780;28;20032;-75
2023/06/07 05:19:44;;;;;;;182.65;64.35;;;;;;;21.12;55.39;101889.72;5001767;28;20030;-74
2023/06/07 05:22:10;;;;;;;180.73;64.90;;;;;;;21.14;56.32;101889.66;4992882;28;20042;-75
2023/06/07 05:24:35;;;;;;;182.40;65.32;;;;;;;21.18;56.50;101896.56;5012164;28;20495;-75
2023/06/07 05:27:01;;;;;;;181.32;66.38;;;;;;;21.16;56.96;101887.78;5013610;28;20030;-75
2023/06/07 05:29:26;;;;;;;180.07;64.63;;;;;;;21.16;57.12;101899.28;5014082;28;20014;-75
2023/06/07 05:31:51;;;;;;;188.45;67.15;;;;;;;21.15;56.64;101896.69;5013511;28;20076;-74
2023/06/07 05:34:17;;;;;;;191.98;66.95;;;;;;;21.17;56.84;101895.66;5013646;28;20025;-75
2023/06/07 05:36:42;;;;;;;190.45;65.82;;;;;;;21.25;56.85;101887.38;5011690;28;20025;-74
2023/06/07 05:39:07;;;;;;;184.55;66.05;;;;;;;21.38;56.59;101887.75;5012455;28;20026;-75
2023/06/07 05:41:33;;;;;;;183.73;65.30;;;;;;;21.51;55.10;101890.72;5025871;28;20035;-75
2023/06/07 05:43:58;;;;;;;184.57;65.50;;;;;;;21.59;54.27;101889.47;5011523;28;20022;-75
2023/06/07 05:46:24;;;;;;;194.48;66.72;;;;;;;21.66;53.96;101887.41;5013149;28;20029;-75
2023/06/07 05:48:49;;;;;;;185.18;65.68;;;;;;;21.69;53.55;101887.31;5013525;28;20596;-75
2023/06/07 05:51:14;;;;;;;186.93;66.97;;;;;;;21.74;53.10;101890.59;5012317;28;20022;-75
2023/06/07 05:53:40;;;;;;;183.35;64.97;;;;;;;21.75;52.80;101888.81;5013293;28;20033;-73
2023/06/07 05:56:05;;;;;;;180.90;65.40;;;;;;;21.75;52.67;101895.00;5010228;28;20033;-75
2023/06/07 05:58:31;;;;;;;184.38;65.38;;;;;;;21.78;52.27;101896.66;5003754;28;20491;-75
2023/06/07 06:00:58;;;;;;;203.27;69.53;;;;;;;21.78;51.18;101897.50;5010098;28;20017;-75
2023/06/07 06:03:23;;;;;;;186.13;65.72;;;;;;;21.82;50.98;101897.41;5008308;28;20482;-75
2023/06/07 06:05:48;;;;;;;186.90;66.15;;;;;;;21.86;51.40;101897.16;5012719;28;20107;-75
2023/06/07 06:08:15;;;;;;;184.98;66.53;;;;;;;21.91;50.77;101899.63;5009225;28;20053;-75
2023/06/07 06:10:41;;;;;;;184.07;64.97;;;;;;;21.97;50.36;101901.16;5016749;28;20108;-75
2023/06/07 06:13:07;;;;;;;182.38;68.50;;;;;;;22.07;49.79;101908.66;5032915;22;20034;-75
2023/06/07 06:15:32;;;;;;;192.70;69.50;;;;;;;22.16;49.82;101903.84;5001302;28;20034;-75
2023/06/07 06:17:57;;;;;;;194.95;71.10;;;;;;;22.34;48.93;101903.00;5002971;28;20107;-75
2023/06/07 06:20:23;;;;;;;189.98;68.75;;;;;;;22.92;47.91;101906.50;5005719;28;20145;-75
2023/06/07 06:22:48;;;;;;;183.98;67.00;;;;;;;23.48;46.56;101909.03;4988361;28;20065;-75
2023/06/07 06:25:13;;;;;;;197.07;70.43;;;;;;;23.90;45.18;101903.31;5003530;28;20041;-75
2023/06/07 06:27:39;;;;;;;185.68;68.35;;;;;;;24.25;44.28;101907.66;4982066;28;20061;-75
2023/06/07 06:30:05;;;;;;;195.40;70.82;;;;;;;24.59;43.34;101903.97;4982803;28;20070;-75
2023/06/07 06:32:31;;;;;;;204.02;71.65;;;;;;;24.79;43.82;101905.53;4976832;28;20022;-76
2023/06/07 06:34:56;;;;;;;188.77;69.55;;;;;;;24.96;43.27;101907.25;4989808;28;20064;-76
2023/06/07 06:37:21;;;;;;;202.35;72.82;;;;;;;25.17;42.88;101903.41;4985974;28;20037;-76
2023/06/07 06:39:47;;;;;;;190.63;71.20;;;;;;;25.31;41.96;101914.16;4987065;28;20096;-76
2023/06/07 06:42:12;;;;;;;191.98;69.72;;;;;;;25.44;42.00;101916.97;5003498;28;20045;-76
2023/06/07 06:44:38;;;;;;;191.65;68.47;;;;;;;25.57;42.02;101917.94;4965201;28;20042;-74
2023/06/07 06:47:04;;;;;;;197.07;71.93;;;;;;;25.76;42.13;101923.03;4980810;28;20030;-74
2023/06/07 06:49:29;;;;;;;204.63;71.50;;;;;;;26.01;41.96;101924.19;4985577;28;20348;-74
2023/06/07 06:51:55;;;;;;;188.77;70.38;;;;;;;26.11;42.26;101920.03;4988351;28;20097;-75
2023/06/07 06:54:21;;;;;;;210.70;72.85;;;;;;;26.26;42.25;101914.66;4996872;28;20033;-73
2023/06/07 06:56:46;;;;;;;204.05;73.03;;;;;;;26.44;38.48;101918.84;4987669;28;20034;-74
2023/06/07 06:59:12;;;;;;;200.25;72.97;;;;;;;26.93;33.63;101911.28;4983486;28;20041;-73
2023/06/07 07:01:48;;;;;;;209.55;75.30;;;;;;;27.03;31.27;101908.81;4971830;28;20406;-73
2023/06/07 07:04:17;;;;;;;221.38;77.20;;;;;;;27.07;33.17;101910.34;4967425;28;20096;-72
2023/06/07 07:06:42;;;;;;;198.05;71.40;;;;;;;27.20;34.75;101910.34;4973310;28;20036;-74
2023/06/07 07:09:09;;;;;;;195.40;71.40;;;;;;;27.33;33.46;101913.94;4988971;28;20014;-73
2023/06/07 07:11:35;;;;;;;201.80;72.55;;;;;;;27.46;32.74;101912.16;4970321;28;20112;-73
2023/06/07 07:14:00;;;;;;;196.90;72.10;;;;;;;27.62;34.04;101905.72;4980291;28;20347;-73
2023/06/07 07:16:26;;;;;;;199.73;72.97;;;;;;;27.81;34.37;101905.28;4984263;28;20052;-73
2023/06/07 07:18:51;;;;;;;195.25;72.88;;;;;;;27.56;34.92;101901.66;4976871;28;21073;-72
2023/06/07 07:21:16;;;;;;;193.48;73.07;;;;;;;27.83;34.21;101898.00;4985178;28;20053;-73
2023/06/07 07:23:42;;;;;;;202.07;74.57;;;;;;;27.88;35.18;101900.34;4972099;28;20023;-72
2023/06/07 07:26:07;;;;;;;200.48;72.28;;;;;;;27.25;35.21;101902.88;4961661;28;20033;-72
2023/06/07 07:28:33;;;;;;;209.68;74.82;;;;;;;27.42;35.14;101904.41;4972972;28;20026;-72
2023/06/07 07:30:58;;;;;;;198.65;73.07;;;;;;;27.75;34.10;101898.53;4982601;28;20092;-72
2023/06/07 07:33:23;;;;;;;195.98;73.82;;;;;;;27.83;33.91;101896.16;4987337;28;20117;-72
2023/06/07 07:35:49;;;;;;;194.90;73.60;;;;;;;27.76;34.40;101911.00;4990365;28;20030;-72
2023/06/07 07:38:15;;;;;;;206.95;75.50;;;;;;;28.04;32.91;101898.31;4981094;28;20076;-72
2023/06/07 07:40:43;;;;;;;200.73;72.75;;;;;;;28.07;32.78;101906.13;4980983;28;20479;-72
2023/06/07 07:43:10;;;;;;;209.55;75.35;;;;;;;27.99;33.52;101905.81;4982084;28;20056;-72
2023/06/07 07:45:36;;;;;;;203.15;73.57;;;;;;;27.96;32.78;101914.09;4983582;28;20101;-71
2023/06/07 07:48:01;;;;;;;197.73;72.85;;;;;;;28.22;31.17;101906.88;4969736;28;20121;-72
2023/06/07 07:50:27;;;;;;;189.73;71.95;;;;;;;28.47;32.10;101905.94;4992411;28;20022;-72
2023/06/07 07:52:54;;;;;;;213.75;78.60;;;;;;;28.77;31.26;101904.69;4988066;28;20035;-72
2023/06/07 07:55:21;;;;;;;195.63;73.10;;;;;;;28.81;31.20;101910.69;4991312;28;20030;-72
2023/06/07 07:57:46;;;;;;;185.70;72.68;;;;;;;28.84;31.38;101910.47;4996194;28;20026;-73
2023/06/07 08:00:12;;;;;;;191.07;73.65;;;;;;;28.65;31.95;101905.59;4995021;28;20033;-71
2023/06/07 08:02:38;;;;;;;195.93;72.47;;;;;;;28.59;31.04;101901.50;4974466;28;20089;-72
2023/06/07 08:05:04;;;;;;;193.90;73.85;;;;;;;28.64;30.80;101902.03;4978592;28;20463;-71
2023/06/07 08:07:29;;;;;;;207.38;74.82;;;;;;;28.90;31.77;101896.53;4988041;28;20122;-77
2023/06/07 08:09:55;;;;;;;194.90;73.70;;;;;;;29.14;30.72;101906.44;4995178;28;20033;-74
2023/06/07 08:12:20;;;;;;;194.73;74.50;;;;;;;29.40;31.10;101900.91;5000641;28;20500;-76
2023/06/07 08:14:46;;;;;;;186.55;73.03;;;;;;;29.57;30.96;101902.25;4992904;28;20061;-74
2023/06/07 08:17:11;;;;;;;196.35;75.78;;;;;;;29.65;31.32;101899.81;4994069;28;20054;-75
2023/06/07 08:19:36;;;;;;;192.18;74.05;;;;;;;29.75;31.16;101906.22;4988186;28;20022;-75
2023/06/07 08:22:02;;;;;;;191.10;76.10;;;;;;;29.87;31.07;101900.84;4992385;28;20487;-75
2023/06/07 08:24:27;;;;;;;194.27;74.28;;;;;;;29.89;31.12;101890.81;4984682;28;20495;-75
2023/06/07 08:26:52;;;;;;;201.07;76.63;;;;;;;29.94;30.50;101886.78;4981004;28;20113;-76
2023/06/07 08:29:18;;;;;;;191.13;75.25;;;;;;;30.02;30.81;101891.53;4985811;28;20113;-75
2023/06/07 08:31:43;;;;;;;187.43;74.95;;;;;;;30.15;30.85;101897.66;4982438;28;20110;-75
2023/06/07 08:34:09;;;;;;;202.98;77.38;;;;;;;30.18;30.36;101896.53;4987754;28;20026;-75
2023/06/07 08:36:36;;;;;;;194.25;74.90;;;;;;;30.23;30.20;101899.72;4974132;28;20015;-75
2023/06/07 08:39:02;;;;;;;193.05;76.88;;;;;;;30.42;29.88;101901.78;4982941;28;20041;-76
2023/06/07 08:41:27;;;;;;;195.25;75.70;;;;;;;30.56;30.30;101889.03;4972454;28;20027;-77
2023/06/07 08:43:53;;;;;;;192.02;77.10;;;;;;;30.68;29.99;101901.50;4973372;28;20050;-77
2023/06/07 08:46:19;;;;;;;192.65;76.75;;;;;;;30.78;30.01;101893.50;4972965;28;20035;-77
2023/06/07 08:48:48;;;;;;;197.98;75.35;;;;;;;30.68;29.62;101893.41;4973346;28;20042;-76
2023/06/07 08:51:14;;;;;;;191.82;76.88;;;;;;;30.76;29.90;101896.31;4974668;28;20543;-76
2023/06/07 08:53:45;;;;;;;193.57;75.03;;;;;;;30.75;29.95;101899.16;4992563;28;20076;-76
2023/06/07 08:56:10;;;;;;;195.88;75.57;;;;;;;30.94;29.58;101898.47;4993155;28;20080;-76
2023/06/07 08:58:37;;;;;;;192.15;78.70;;;;;;;30.90;29.59;101903.25;4974943;28;20027;-76
2023/06/07 09:01:02;;;;;;;187.25;74.88;;;;;;;30.95;29.27;101889.34;4974526;28;20023;-77
2023/06/07 09:03:28;;;;;;;189.30;74.40;;;;;;;30.84;29.51;101892.97;4995004;28;20030;-76
2023/06/07 09:05:55;;;;;;;183.75;74.85;;;;;;;30.90;30.09;101899.72;4994707;28;20026;-77
2023/06/07 09:08:20;;;;;;;188.68;75.03;;;;;;;30.66;30.24;101884.56;4983383;28;20152;-77
2023/06/07 09:10:45;;;;;;;186.57;75.97;;;;;;;30.85;29.38;101898.25;4975367;28;20121;-77
2023/06/07 09:13:12;;;;;;;182.90;72.90;;;;;;;30.65;30.25;101893.63;4974863;28;20093;-78
2023/06/07 09:15:38;;;;;;;183.73;73.68;;;;;;;30.54;29.85;101907.16;4989755;28;20037;-77
2023/06/07 09:18:04;;;;;;;177.73;72.57;;;;;;;30.51;30.09;101895.66;4974195;28;20035;-77
2023/06/07 09:20:33;;;;;;;185.77;73.93;;;;;;;30.40;30.70;101894.81;4974051;28;20476;-76
2023/06/07 09:23:09;;;;;;;183.45;73.47;;;;;;;30.45;30.19;101893.47;4988888;28;20034;-76
2023/06/07 09:25:35;;;;;;;184.48;74.53;;;;;;;30.22;30.79;101894.47;4992137;28;20026;-76
2023/06/07 09:28:08;;;;;;;188.13;74.97;;;;;;;30.26;30.35;101893.25;4991802;28;20057;-76
2023/06/07 09:30:34;;;;;;;183.45;74.25;;;;;;;30.13;30.41;101896.94;4975239;28;20471;-77
2023/06/07 09:32:59;;;;;;;187.00;74.78;;;;;;;30.11;30.70;101885.41;4994056;28;20069;-78
2023/06/07 09:35:25;;;;;;;184.60;74.40;;;;;;;30.04;30.77;101889.59;4976391;28;20511;-77
2023/06/07 09:37:52;;;;;;;193.30;75.38;;;;;;;30.10;30.97;101889.06;4973266;28;20349;-77
2023/06/07 09:40:18;;;;;;;183.57;73.75;;;;;;;30.01;31.72;101879.06;4974272;28;20026;-77
2023/06/07 09:42:44;;;;;;;184.52;72.55;;;;;;;30.12;31.54;101888.94;4991260;28;20061;-78
2023/06/07 09:45:10;;;;;;;186.60;74.25;;;;;;;29.81;31.05;101876.09;4993604;28;20064;-77
2023/06/07 09:47:36;;;;;;;185.20;72.25;;;;;;;29.59;31.45;101878.78;4976013;28;20126;-76
2023/06/07 09:50:12;;;;;;;177.38;70.65;;;;;;;29.63;31.75;101881.09;4972886;28;20051;-77
2023/06/07 09:52:38;;;;;;;185.43;73.30;;;;;;;29.48;31.55;101882.31;4990307;28;20052;-76
2023/06/07 09:55:06;;;;;;;185.63;71.32;;;;;;;29.28;32.40;101879.34;4984097;28;20058;-77
2023/06/07 09:57:33;;;;;;;184.23;73.32;;;;;;;29.10;32.48;101886.13;4975296;28;20085;-77
2023/06/07 10:00:14;;;;;;;184.88;72.07;;;;;;;28.53;33.59;101879.59;4992585;28;20027;-78
2023/06/07 10:02:42;;;;;;;183.82;74.18;;;;;;;27.87;34.74;101886.06;4973864;28;20110;-76
2023/06/07 10:05:07;;;;;;;199.25;76.07;;;;;;;27.37;36.07;101879.75;4972340;28;20031;-77
2023/06/07 10:07:47;;;;;;;182.02;72.60;;;;;;;26.95;36.82;101874.47;4982118;28;20348;-78
2023/06/07 10:10:15;;;;;;;181.40;73.00;;;;;;;26.53;37.77;101874.50;4991432;28;20027;-76
2023/06/07 10:12:42;;;;;;;184.27;73.45;;;;;;;26.19;38.60;101882.06;4981100;28;20050;-78
2023/06/07 10:15:10;;;;;;;180.90;71.47;;;;;;;25.92;39.07;101879.25;4989949;28;20061;-76
2023/06/07 10:17:48;;;;;;;186.80;74.15;;;;;;;25.69;39.29;101884.25;4991999;28;20022;-77
2023/06/07 10:20:19;;;;;;;177.80;71.07;;;;;;;25.44;39.75;101877.72;4991376;28;20133;-76
2023/06/07 10:22:46;;;;;;;180.50;73.57;;;;;;;25.22;40.43;101878.09;4972060;28;20023;-75
2023/06/07 10:25:18;;;;;;;184.57;73.60;;;;;;;25.00;41.36;101878.53;4971846;28;20037;-77
2023/06/07 10:27:51;;;;;;;185.30;73.22;;;;;;;24.79;41.77;101877.97;4972150;28;20464;-77
2023/06/07 10:30:19;;;;;;;184.88;73.68;;;;;;;24.60;41.85;101865.63;4972219;28;20034;-76
2023/06/07 10:32:46;;;;;;;191.65;75.53;;;;;;;24.42;42.30;101872.03;4979376;28;20026;-76
2023/06/07 10:35:11;;;;;;;185.90;74.13;;;;;;;24.23;42.38;101869.53;4991133;28;20018;-76
2023/06/07 10:37:37;;;;;;;187.15;74.45;;;;;;;24.13;43.52;101864.69;4991230;28;20018;-76
2023/06/07 10:40:09;;;;;;;190.23;72.88;;;;;;;23.99;43.01;101867.25;4981444;28;20507;-76
2023/06/07 10:42:35;;;;;;;189.15;73.78;;;;;;;23.82;43.92;101870.81;4956440;28;20034;-76
2023/06/07 10:45:00;;;;;;;187.77;72.22;;;;;;;23.72;44.63;101867.75;4976300;28;20030;-76
2023/06/07 10:47:26;;;;;;;184.95;72.95;;;;;;;23.59;44.39;101861.38;4983427;28;20110;-76
2023/06/07 10:49:52;;;;;;;184.93;71.10;;;;;;;23.52;44.87;101863.50;4973162;28;20480;-77
2023/06/07 10:52:18;;;;;;;186.38;72.03;;;;;;;23.43;45.11;101858.63;4972170;28;20030;-77
2023/06/07 10:54:44;;;;;;;186.82;72.20;;;;;;;23.32;45.72;101859.19;4971468;28;20019;-76
2023/06/07 10:57:10;;;;;;;184.35;71.68;;;;;;;23.24;45.52;101856.06;4971772;28;20401;-76
2023/06/07 10:59:36;;;;;;;187.27;71.82;;;;;;;23.18;45.65;101859.03;4971738;28;20038;-76